Time;durP1;ratioP1;P1;durP2;ratioP2;P2;SDS_P1;SDS_P2;PMS_P1;PMS_P2;Temp;Humidity;BMP_temperature;BMP_pressure;BME280_temperature;BME280_humidity;BME280_pressure;Samples;Min_cycle;Max_cycle;Signal;HPM_P1;HPM_P2
2021/12/30 00:01:20;;;;;;;92.63;40.17;;;10.80;99.90;;;;;;4999614;28;20042;-78
2021/12/30 00:03:48;;;;;;;79.10;39.63;;;10.80;99.90;;;;;;4996370;23;20046;-73
2021/12/30 00:06:22;;;;;;;77.13;36.85;;;10.80;99.90;;;;;;4980903;28;20046;-74
2021/12/30 00:08:51;;;;;;;90.38;43.75;;;10.80;99.90;;;;;;4974660;28;20050;-73
2021/12/30 00:11:18;;;;;;;77.65;38.60;;;10.80;99.90;;;;;;4977268;28;20128;-71
2021/12/30 00:13:45;;;;;;;90.13;41.70;;;10.80;99.90;;;;;;4977478;28;20057;-73
2021/12/30 00:16:16;;;;;;;79.63;39.38;;;10.80;99.90;;;;;;4988714;28;20059;-72
2021/12/30 00:18:45;;;;;;;83.55;38.47;;;10.80;99.90;;;;;;4975106;28;20054;-70
2021/12/30 00:21:12;;;;;;;80.95;36.38;;;10.90;99.90;;;;;;4974307;28;20514;-72
2021/12/30 00:23:39;;;;;;;97.05;44.58;;;10.80;99.90;;;;;;4976075;28;20046;-73
2021/12/30 00:26:06;;;;;;;95.40;45.00;;;10.80;99.90;;;;;;4990426;28;20571;-71
2021/12/30 00:28:33;;;;;;;89.63;40.80;;;10.80;99.90;;;;;;4972572;28;20547;-71
2021/12/30 00:31:00;;;;;;;105.88;48.10;;;10.80;99.90;;;;;;4975636;28;20229;-73
2021/12/30 00:33:27;;;;;;;94.35;46.17;;;10.80;99.90;;;;;;4990348;28;20037;-73
2021/12/30 00:35:55;;;;;;;77.70;35.83;;;10.80;99.90;;;;;;4975873;28;20062;-72
2021/12/30 00:38:22;;;;;;;74.40;38.20;;;10.80;99.90;;;;;;4975515;28;20093;-72
2021/12/30 00:40:49;;;;;;;70.18;36.08;;;10.70;99.90;;;;;;4975302;28;20145;-72
2021/12/30 00:43:17;;;;;;;63.30;31.90;;;10.70;99.90;;;;;;4971063;28;20043;-73
2021/12/30 00:45:44;;;;;;;81.28;37.20;;;10.70;99.90;;;;;;4985515;28;20339;-74
2021/12/30 00:48:11;;;;;;;69.47;34.88;;;10.70;99.90;;;;;;4972427;28;20563;-72
2021/12/30 00:50:40;;;;;;;70.85;32.97;;;10.70;99.90;;;;;;4973159;28;20117;-71
2021/12/30 00:53:08;;;;;;;72.28;31.35;;;10.70;99.90;;;;;;4990694;28;20301;-71
2021/12/30 00:55:35;;;;;;;82.85;31.13;;;10.70;99.90;;;;;;4973640;28;20612;-71
2021/12/30 00:58:04;;;;;;;64.07;30.58;;;10.70;99.90;;;;;;4974920;28;20120;-74
2021/12/30 01:00:31;;;;;;;56.80;27.92;;;10.70;99.90;;;;;;4975609;28;20295;-72
2021/12/30 01:02:59;;;;;;;52.95;26.92;;;10.70;99.90;;;;;;4973496;28;20409;-74
2021/12/30 01:05:26;;;;;;;57.65;27.55;;;10.70;99.90;;;;;;4987725;28;20054;-70
2021/12/30 01:07:52;;;;;;;56.90;29.85;;;10.70;99.90;;;;;;4974449;28;20516;-71
2021/12/30 01:10:23;;;;;;;58.53;27.80;;;10.70;99.90;;;;;;4973242;28;20274;-70
2021/12/30 01:12:52;;;;;;;68.90;30.23;;;10.70;99.90;;;;;;4989689;28;20065;-72
2021/12/30 01:15:29;;;;;;;61.10;26.63;;;10.70;99.90;;;;;;4974422;28;20049;-70
2021/12/30 01:18:20;;;;;;;49.30;23.83;;;10.70;99.90;;;;;;4965964;28;20476;-71
2021/12/30 01:20:43;;;;;;;54.65;23.02;;;10.60;99.90;;;;;;4973601;28;20058;-71
2021/12/30 01:23:10;;;;;;;50.95;20.52;;;10.60;99.90;;;;;;4975165;28;20112;-71
2021/12/30 01:25:36;;;;;;;46.85;19.40;;;10.60;99.90;;;;;;4974308;28;20109;-70
2021/12/30 01:28:03;;;;;;;46.50;20.20;;;10.60;99.90;;;;;;4974854;28;20035;-72
2021/12/30 01:30:31;;;;;;;49.13;20.92;;;10.60;99.90;;;;;;4974135;28;20054;-71
2021/12/30 01:32:58;;;;;;;51.17;18.27;;;10.60;99.90;;;;;;4973545;28;20057;-73
2021/12/30 01:35:26;;;;;;;46.20;20.55;;;10.60;99.90;;;;;;4974503;28;20476;-72
2021/12/30 01:37:56;;;;;;;44.75;20.02;;;10.60;99.90;;;;;;4989219;28;20355;-72
2021/12/30 01:40:23;;;;;;;49.22;19.42;;;10.60;99.90;;;;;;4974442;28;20661;-72
2021/12/30 01:42:51;;;;;;;41.83;19.60;;;10.60;99.90;;;;;;4973222;28;20050;-73
2021/12/30 01:45:18;;;;;;;44.65;18.63;;;10.60;99.90;;;;;;4987801;28;20105;-72
2021/12/30 01:47:53;;;;;;;46.63;18.08;;;10.60;99.90;;;;;;4981031;28;20050;-73
2021/12/30 01:50:21;;;;;;;;;;;10.50;99.90;;;;;;4974298;28;20050;-72
2021/12/30 01:52:48;;;;;;;51.40;20.30;;;10.60;99.90;;;;;;4972035;28;19952;-72
2021/12/30 01:55:16;;;;;;;47.30;19.77;;;10.50;99.90;;;;;;4972330;28;20505;-71
2021/12/30 01:57:43;;;;;;;55.47;19.58;;;10.50;99.90;;;;;;4973165;28;20113;-72
2021/12/30 02:00:14;;;;;;;48.53;19.92;;;10.50;99.90;;;;;;4988506;28;20057;-72
2021/12/30 02:02:40;;;;;;;45.45;19.27;;;10.50;99.90;;;;;;4973447;28;20295;-73
2021/12/30 02:05:08;;;;;;;45.90;19.42;;;10.50;99.90;;;;;;4972544;28;20050;-72
2021/12/30 02:07:35;;;;;;;38.22;18.17;;;10.50;99.90;;;;;;4987782;28;20042;-73
2021/12/30 02:10:03;;;;;;;40.28;19.50;;;10.50;99.90;;;;;;4971679;28;20046;-72
2021/12/30 02:12:32;;;;;;;48.83;18.67;;;10.50;99.90;;;;;;4973790;28;20456;-71
2021/12/30 02:14:59;;;;;;;52.35;21.10;;;10.50;99.90;;;;;;4974199;28;20073;-73
2021/12/30 02:17:27;;;;;;;56.22;24.02;;;10.50;99.90;;;;;;4971033;28;20092;-72
2021/12/30 02:20:03;;;;;;;55.53;26.48;;;10.40;99.90;;;;;;4987259;28;20539;-71
2021/12/30 02:22:30;;;;;;;61.35;26.10;;;10.40;99.90;;;;;;4989117;28;20050;-71
2021/12/30 02:24:59;;;;;;;56.28;26.73;;;10.50;99.90;;;;;;4973086;28;20584;-70
2021/12/30 02:27:27;;;;;;;56.95;27.17;;;10.40;99.90;;;;;;4968567;28;20082;-72
2021/12/30 02:29:54;;;;;;;54.22;25.60;;;10.40;99.90;;;;;;4952807;28;20058;-72
2021/12/30 02:32:22;;;;;;;62.40;26.33;;;10.40;99.90;;;;;;4986432;28;20046;-72
2021/12/30 02:34:49;;;;;;;60.10;27.67;;;10.40;99.90;;;;;;4986026;28;20668;-71
2021/12/30 02:37:18;;;;;;;59.90;26.63;;;10.40;99.90;;;;;;4971562;28;20468;-70
2021/12/30 02:39:51;;;;;;;60.80;26.45;;;10.40;99.90;;;;;;4972533;28;20058;-70
2021/12/30 02:42:23;;;;;;;56.80;27.65;;;10.40;99.90;;;;;;4987549;28;20054;-72
2021/12/30 02:44:51;;;;;;;53.70;25.02;;;10.40;99.90;;;;;;4972502;28;20638;-72
2021/12/30 02:47:18;;;;;;;64.07;26.83;;;10.40;99.90;;;;;;4971454;28;20348;-72
2021/12/30 02:49:45;;;;;;;55.28;26.08;;;10.40;99.90;;;;;;4973036;28;20057;-71
2021/12/30 02:52:12;;;;;;;56.15;26.38;;;10.30;99.90;;;;;;4973473;28;20109;-72
2021/12/30 02:54:41;;;;;;;56.88;25.17;;;10.40;99.90;;;;;;4987209;28;20351;-72
2021/12/30 02:57:08;;;;;;;54.92;24.90;;;10.30;99.90;;;;;;4970704;28;20050;-72
2021/12/30 02:59:35;;;;;;;57.42;24.67;;;10.30;99.90;;;;;;4988625;28;20536;-72
2021/12/30 03:02:03;;;;;;;61.25;24.30;;;10.30;99.90;;;;;;4969255;28;20058;-70
2021/12/30 03:04:30;;;;;;;51.38;22.77;;;10.30;99.90;;;;;;4985891;28;20047;-72
2021/12/30 03:06:58;;;;;;;41.53;21.70;;;10.30;99.90;;;;;;4971436;28;20073;-70
2021/12/30 03:09:25;;;;;;;56.63;23.20;;;10.30;99.90;;;;;;4976749;28;20061;-70
2021/12/30 03:11:52;;;;;;;47.83;21.77;;;10.30;99.90;;;;;;4976667;28;20080;-72
2021/12/30 03:14:22;;;;;;;51.13;22.05;;;10.30;99.90;;;;;;4977612;28;20108;-70
2021/12/30 03:16:49;;;;;;;51.67;22.15;;;10.30;99.90;;;;;;4993286;28;20479;-70
2021/12/30 03:19:15;;;;;;;49.42;21.60;;;10.30;99.90;;;;;;4974519;28;20363;-71
2021/12/30 03:21:42;;;;;;;44.65;20.23;;;10.30;99.90;;;;;;4992688;28;20051;-71
2021/12/30 03:24:09;;;;;;;48.05;20.48;;;10.30;99.90;;;;;;4993373;28;20592;-71
2021/12/30 03:26:36;;;;;;;48.47;20.13;;;10.30;99.90;;;;;;4975980;28;20080;-71
2021/12/30 03:29:04;;;;;;;46.17;19.40;;;10.30;99.90;;;;;;4992325;28;20404;-71
2021/12/30 03:31:31;;;;;;;41.40;17.70;;;10.30;99.90;;;;;;4977983;28;20144;-71
2021/12/30 03:33:58;;;;;;;45.17;18.33;;;10.30;99.90;;;;;;4978243;28;20070;-72
2021/12/30 03:36:25;;;;;;;45.47;17.25;;;10.30;99.90;;;;;;4976679;28;20081;-72
2021/12/30 03:38:53;;;;;;;48.28;17.77;;;10.30;99.90;;;;;;4992825;28;20568;-71
2021/12/30 03:41:26;;;;;;;51.33;18.75;;;10.30;99.90;;;;;;4976681;28;20046;-72
2021/12/30 03:43:54;;;;;;;48.33;15.63;;;10.30;99.90;;;;;;4978089;28;20054;-71
2021/12/30 03:46:21;;;;;;;45.53;16.05;;;10.20;99.90;;;;;;4974504;28;20042;-71
2021/12/30 03:48:49;;;;;;;36.38;16.17;;;10.30;99.90;;;;;;4991161;28;20390;-72
2021/12/30 03:51:24;;;;;;;37.70;15.13;;;10.30;99.90;;;;;;4991439;28;20050;-71
2021/12/30 03:53:55;;;;;;;39.50;16.00;;;10.20;99.90;;;;;;4976577;28;20109;-72
2021/12/30 03:56:26;;;;;;;39.70;13.88;;;10.30;99.90;;;;;;4967852;28;20472;-70
2021/12/30 03:58:53;;;;;;;38.28;14.70;;;10.30;99.90;;;;;;4992225;28;20116;-70
2021/12/30 04:01:23;;;;;;;39.95;14.20;;;10.30;99.90;;;;;;4975433;28;20093;-69
2021/12/30 04:03:51;;;;;;;40.60;14.20;;;10.30;99.90;;;;;;4976321;28;20038;-71
2021/12/30 04:06:18;;;;;;;38.47;13.65;;;10.30;99.90;;;;;;4990804;28;20047;-71
2021/12/30 04:08:45;;;;;;;33.85;11.27;;;10.30;99.90;;;;;;4990186;28;20770;-71
2021/12/30 04:11:12;;;;;;;32.03;11.65;;;10.30;99.90;;;;;;4975171;28;20290;-72
2021/12/30 04:13:39;;;;;;;34.75;11.48;;;10.30;99.90;;;;;;4991503;28;20737;-71
2021/12/30 04:16:07;;;;;;;34.33;11.38;;;10.30;99.90;;;;;;4972649;28;20511;-71
2021/12/30 04:18:34;;;;;;;30.58;10.05;;;10.40;99.90;;;;;;4970214;28;20054;-71
2021/12/30 04:21:01;;;;;;;33.67;11.90;;;10.40;99.90;;;;;;4977094;28;20144;-71
2021/12/30 04:23:29;;;;;;;32.17;10.43;;;10.40;99.90;;;;;;4976302;28;20628;-72
2021/12/30 04:25:56;;;;;;;28.23;10.48;;;10.40;99.90;;;;;;4989900;28;20065;-70
2021/12/30 04:28:23;;;;;;;37.25;11.25;;;10.40;99.90;;;;;;4987641;28;20035;-71
2021/12/30 04:30:50;;;;;;;38.95;11.57;;;10.50;99.90;;;;;;4974026;28;20050;-71
2021/12/30 04:33:17;;;;;;;36.13;11.32;;;10.50;99.90;;;;;;4988950;28;20539;-72
2021/12/30 04:35:44;;;;;;;33.10;11.25;;;10.50;99.90;;;;;;4990231;28;20189;-70
2021/12/30 04:38:12;;;;;;;25.00;9.98;;;10.50;99.90;;;;;;4990099;28;20595;-72
2021/12/30 04:40:38;;;;;;;31.65;11.57;;;10.50;99.90;;;;;;4990177;28;20579;-73
2021/12/30 04:43:05;;;;;;;29.58;10.77;;;10.50;99.90;;;;;;4973947;28;20508;-71
2021/12/30 04:45:32;;;;;;;39.58;13.10;;;10.50;99.90;;;;;;4987600;28;20105;-70
2021/12/30 04:47:59;;;;;;;30.25;11.98;;;10.60;99.90;;;;;;4972993;28;20042;-70
2021/12/30 04:50:26;;;;;;;34.65;11.55;;;10.60;99.90;;;;;;4973040;28;20043;-71
2021/12/30 04:52:53;;;;;;;41.90;12.85;;;10.60;99.90;;;;;;4989663;28;20109;-71
2021/12/30 04:55:22;;;;;;;38.63;12.23;;;10.60;99.90;;;;;;4973742;28;20124;-72
2021/12/30 04:57:49;;;;;;;41.72;12.50;;;10.50;99.90;;;;;;4975065;28;20054;-72
2021/12/30 05:00:16;;;;;;;37.25;11.60;;;10.60;99.90;;;;;;4986942;28;20531;-72
2021/12/30 05:05:45;;;;;;;38.10;14.13;;;10.60;99.90;;;;;;4969571;28;20046;-71
2021/12/30 05:08:14;;;;;;;37.65;13.63;;;10.60;99.90;;;;;;4989323;28;20132;-72
2021/12/30 05:10:41;;;;;;;39.47;13.27;;;10.60;99.90;;;;;;4973455;28;20046;-69
2021/12/30 05:13:09;;;;;;;34.10;12.77;;;10.60;99.90;;;;;;4988939;28;20478;-71
2021/12/30 05:15:37;;;;;;;42.20;14.63;;;10.60;99.90;;;;;;4970330;28;20054;-71
2021/12/30 05:18:06;;;;;;;44.30;14.63;;;10.60;99.90;;;;;;4967424;28;20094;-72
2021/12/30 05:20:33;;;;;;;39.78;14.93;;;10.60;99.90;;;;;;4970037;28;20128;-69
2021/12/30 05:22:59;;;;;;;43.67;15.23;;;10.70;99.90;;;;;;4988949;28;20371;-70
2021/12/30 05:25:27;;;;;;;54.38;16.55;;;10.70;99.90;;;;;;4987741;28;20475;-71
2021/12/30 05:27:54;;;;;;;44.42;15.07;;;10.70;99.90;;;;;;4987312;28;20497;-70
2021/12/30 05:30:22;;;;;;;40.60;15.80;;;10.70;99.90;;;;;;4984895;28;20198;-72
2021/12/30 05:32:51;;;;;;;54.97;15.52;;;10.70;99.90;;;;;;4988249;28;20055;-71
2021/12/30 05:35:18;;;;;;;41.28;14.63;;;10.60;99.90;;;;;;4971124;28;20133;-69
2021/12/30 05:37:45;;;;;;;34.88;14.13;;;10.60;99.90;;;;;;4971187;28;20120;-71
2021/12/30 05:40:17;;;;;;;37.10;15.10;;;10.60;99.90;;;;;;4986626;28;20535;-69
2021/12/30 05:42:44;;;;;;;42.33;14.35;;;10.60;99.90;;;;;;4971867;28;20054;-70
2021/12/30 05:45:14;;;;;;;34.55;12.80;;;10.60;99.90;;;;;;4972014;28;20124;-72
2021/12/30 05:47:46;;;;;;;40.30;12.30;;;10.60;99.90;;;;;;4979743;28;20046;-71
2021/12/30 05:50:16;;;;;;;38.40;12.52;;;10.70;99.90;;;;;;4971073;28;20042;-70
2021/12/30 05:52:43;;;;;;;24.38;11.52;;;10.70;99.90;;;;;;4972041;28;20046;-71
2021/12/30 05:55:10;;;;;;;38.20;11.38;;;10.70;99.90;;;;;;4985608;28;20077;-72
2021/12/30 05:57:36;;;;;;;26.83;10.52;;;10.70;99.90;;;;;;4971596;28;20061;-71
2021/12/30 06:00:06;;;;;;;32.08;10.32;;;10.80;99.90;;;;;;4972515;28;20571;-72
2021/12/30 06:02:33;;;;;;;25.00;10.68;;;10.80;99.90;;;;;;4986460;28;20216;-71
2021/12/30 06:05:11;;;;;;;25.30;9.82;;;10.80;99.90;;;;;;4943460;28;20154;-73
2021/12/30 06:07:38;;;;;;;29.60;10.02;;;10.90;99.90;;;;;;4903129;29;20405;-74
2021/12/30 06:10:05;;;;;;;24.40;9.95;;;10.90;99.90;;;;;;4905061;29;20142;-74
2021/12/30 06:12:33;;;;;;;25.35;8.98;;;10.90;99.90;;;;;;4922102;29;20304;-73
2021/12/30 06:15:00;;;;;;;23.83;9.68;;;10.90;99.90;;;;;;4942389;28;20125;-73
2021/12/30 06:17:27;;;;;;;18.25;7.78;;;10.90;99.90;;;;;;4940982;28;20126;-74
2021/12/30 06:19:54;;;;;;;20.08;7.60;;;10.90;99.90;;;;;;4941026;29;20537;-74
2021/12/30 06:22:21;;;;;;;26.38;8.90;;;11.00;99.90;;;;;;4958296;28;20229;-73
2021/12/30 06:24:48;;;;;;;17.38;7.07;;;11.00;99.90;;;;;;4957285;28;20074;-72
2021/12/30 06:27:14;;;;;;;22.77;8.50;;;11.10;99.90;;;;;;4955034;28;20054;-73
2021/12/30 06:29:41;;;;;;;22.13;8.20;;;11.10;99.90;;;;;;4942803;29;20078;-72
2021/12/30 06:32:08;;;;;;;21.77;7.93;;;11.10;99.90;;;;;;4971128;28;20340;-73
2021/12/30 06:34:35;;;;;;;22.05;8.32;;;11.10;99.90;;;;;;4972581;28;20047;-73
2021/12/30 06:37:02;;;;;;;14.80;7.35;;;11.10;99.90;;;;;;4941948;28;20328;-73
2021/12/30 06:39:29;;;;;;;17.38;7.43;;;11.20;99.90;;;;;;4957416;28;20109;-73
2021/12/30 06:41:55;;;;;;;20.77;7.55;;;11.20;99.90;;;;;;4942196;28;20059;-73
2021/12/30 06:44:22;;;;;;;19.67;8.52;;;11.20;99.90;;;;;;4941565;28;20510;-72
2021/12/30 06:46:58;;;;;;;19.35;7.65;;;11.30;99.90;;;;;;4945877;28;20511;-73
2021/12/30 06:49:26;;;;;;;17.90;6.85;;;11.30;99.90;;;;;;4960853;28;20138;-73
2021/12/30 06:51:53;;;;;;;13.15;5.80;;;11.30;99.90;;;;;;4929625;28;20043;-73
2021/12/30 06:54:20;;;;;;;10.27;5.72;;;11.40;99.90;;;;;;4935016;29;20239;-71
2021/12/30 06:56:47;;;;;;;7.82;4.70;;;11.40;99.90;;;;;;4966937;28;20059;-72
2021/12/30 06:59:14;;;;;;;9.43;5.93;;;11.40;99.90;;;;;;4941868;29;20146;-72
2021/12/30 07:01:43;;;;;;;10.02;5.13;;;11.40;99.90;;;;;;4942034;28;20077;-72
2021/12/30 07:04:11;;;;;;;9.52;5.00;;;11.50;99.90;;;;;;4941814;28;20102;-72
2021/12/30 07:06:37;;;;;;;7.40;3.95;;;11.50;99.90;;;;;;4952292;28;20070;-72
2021/12/30 07:09:04;;;;;;;10.25;4.60;;;11.50;99.90;;;;;;4957029;28;20082;-73
2021/12/30 07:11:31;;;;;;;8.32;4.25;;;11.60;99.90;;;;;;4939841;28;20094;-72
2021/12/30 07:13:58;;;;;;;7.70;4.00;;;11.60;99.90;;;;;;4940749;28;20594;-72
2021/12/30 07:16:24;;;;;;;9.18;4.00;;;11.50;99.90;;;;;;4931629;28;20050;-72
2021/12/30 07:18:51;;;;;;;6.43;3.22;;;11.60;99.90;;;;;;4919829;29;20107;-73
2021/12/30 07:21:18;;;;;;;6.78;3.60;;;11.60;99.90;;;;;;4949509;28;20126;-73
2021/12/30 07:23:45;;;;;;;4.88;2.95;;;11.60;99.90;;;;;;4946734;28;20131;-72
2021/12/30 07:26:11;;;;;;;6.45;3.33;;;11.60;99.90;;;;;;4940992;28;20063;-73
2021/12/30 07:28:38;;;;;;;6.88;3.90;;;11.60;99.90;;;;;;4956653;28;20706;-73
2021/12/30 07:31:05;;;;;;;4.85;3.03;;;11.60;99.90;;;;;;4941324;28;20359;-73
2021/12/30 07:33:32;;;;;;;5.85;3.33;;;11.60;99.90;;;;;;4941822;28;20051;-73
2021/12/30 07:35:59;;;;;;;6.05;3.70;;;11.60;99.90;;;;;;4955662;28;20083;-72
2021/12/30 07:38:25;;;;;;;4.63;3.25;;;11.60;99.90;;;;;;4944958;28;20044;-74
2021/12/30 07:40:52;;;;;;;6.43;3.33;;;11.60;99.90;;;;;;4942789;28;20083;-73
2021/12/30 07:43:19;;;;;;;4.75;2.85;;;11.70;99.90;;;;;;4942171;28;20114;-73
2021/12/30 07:45:46;;;;;;;5.35;3.35;;;11.70;99.90;;;;;;4948210;28;20120;-72
2021/12/30 07:48:13;;;;;;;5.00;3.08;;;11.70;99.90;;;;;;4951275;28;20047;-72
2021/12/30 07:50:39;;;;;;;4.63;3.28;;;11.70;99.90;;;;;;4945401;28;20077;-74
2021/12/30 07:53:06;;;;;;;3.70;2.75;;;11.70;99.90;;;;;;4957665;28;20138;-73
2021/12/30 07:55:33;;;;;;;4.22;3.10;;;11.70;99.90;;;;;;4959458;28;20563;-74
2021/12/30 07:58:00;;;;;;;5.65;2.45;;;11.80;99.90;;;;;;4946230;29;20055;-75
2021/12/30 08:00:26;;;;;;;4.60;2.03;;;11.80;99.90;;;;;;4943806;28;20582;-74
2021/12/30 08:02:54;;;;;;;2.70;1.73;;;11.80;99.90;;;;;;4942750;28;20164;-73
2021/12/30 08:05:21;;;;;;;3.33;1.60;;;11.80;99.90;;;;;;4959590;28;20047;-74
2021/12/30 08:07:48;;;;;;;2.10;1.63;;;11.80;99.90;;;;;;4944640;29;20059;-72
2021/12/30 08:10:18;;;;;;;2.03;1.30;;;11.80;99.90;;;;;;4945132;28;20070;-73
2021/12/30 08:12:47;;;;;;;1.77;1.52;;;11.80;99.90;;;;;;4946159;28;20603;-71
2021/12/30 08:15:14;;;;;;;1.95;1.73;;;11.90;99.90;;;;;;4945016;28;20111;-73
2021/12/30 08:17:43;;;;;;;1.52;1.27;;;11.90;99.90;;;;;;4943308;29;20268;-73
2021/12/30 08:20:12;;;;;;;1.55;0.98;;;11.90;99.90;;;;;;4943534;28;20114;-73
2021/12/30 08:22:39;;;;;;;1.85;1.30;;;11.90;99.90;;;;;;4943269;28;20441;-73
2021/12/30 08:25:07;;;;;;;1.05;0.82;;;11.90;99.90;;;;;;4959569;28;20567;-73
2021/12/30 08:27:34;;;;;;;1.85;0.80;;;11.90;99.90;;;;;;4960494;28;20377;-72
2021/12/30 08:30:04;;;;;;;1.77;1.30;;;11.90;99.90;;;;;;4945677;29;20098;-73
2021/12/30 08:32:31;;;;;;;1.63;1.00;;;11.90;99.90;;;;;;4941639;28;20074;-72
2021/12/30 08:34:57;;;;;;;1.55;1.02;;;11.90;99.90;;;;;;4942037;29;20122;-74
2021/12/30 08:37:24;;;;;;;0.65;0.60;;;11.90;99.90;;;;;;4943491;28;20443;-75
2021/12/30 08:39:51;;;;;;;0.60;0.45;;;11.90;99.90;;;;;;4945280;29;20341;-75
2021/12/30 08:42:26;;;;;;;0.60;0.50;;;11.90;99.90;;;;;;4944859;28;20047;-73
2021/12/30 08:44:54;;;;;;;;;;;11.90;99.90;;;;;;4945733;28;20103;-72
2021/12/30 08:47:21;;;;;;;0.55;0.45;;;11.90;99.90;;;;;;4959014;28;19925;-72
2021/12/30 08:49:49;;;;;;;0.80;0.70;;;11.90;99.90;;;;;;4981444;28;20619;-74
2021/12/30 08:52:22;;;;;;;1.42;0.80;;;11.90;99.90;;;;;;4959277;28;20079;-72
2021/12/30 08:54:50;;;;;;;1.58;0.95;;;11.90;99.90;;;;;;4959009;28;20497;-75
2021/12/30 08:57:19;;;;;;;1.88;1.10;;;11.90;99.90;;;;;;4959540;28;20431;-74
2021/12/30 08:59:46;;;;;;;2.65;1.27;;;11.90;99.90;;;;;;4944994;28;20114;-74
2021/12/30 09:02:13;;;;;;;2.42;1.42;;;11.90;99.90;;;;;;4942584;28;20345;-73
2021/12/30 09:04:45;;;;;;;3.80;1.95;;;12.00;99.90;;;;;;4943851;28;20047;-74
2021/12/30 09:07:14;;;;;;;1.98;1.35;;;12.00;99.90;;;;;;4941676;28;20051;-74
2021/12/30 09:09:40;;;;;;;1.63;1.10;;;12.00;99.90;;;;;;4942980;28;20051;-75
2021/12/30 09:12:08;;;;;;;3.25;2.05;;;12.00;99.90;;;;;;4991053;28;20047;-73
2021/12/30 09:14:35;;;;;;;2.28;1.88;;;12.10;99.90;;;;;;4953079;28;20034;-73
2021/12/30 09:17:03;;;;;;;3.13;2.45;;;12.10;99.90;;;;;;4942739;28;20090;-74
2021/12/30 09:19:29;;;;;;;3.00;1.90;;;12.10;99.90;;;;;;4964839;28;20078;-74
2021/12/30 09:21:57;;;;;;;3.58;2.80;;;12.10;99.90;;;;;;4958348;28;20405;-73
2021/12/30 09:24:24;;;;;;;4.55;3.00;;;12.10;99.90;;;;;;4941829;28;20534;-72
2021/12/30 09:26:50;;;;;;;5.15;3.78;;;12.20;99.90;;;;;;4946342;28;20118;-74
2021/12/30 09:29:17;;;;;;;6.60;4.38;;;12.20;99.90;;;;;;4944097;28;20137;-71
2021/12/30 09:31:47;;;;;;;7.93;4.40;;;12.20;99.90;;;;;;4974155;28;20062;-73
2021/12/30 09:34:15;;;;;;;8.10;5.07;;;12.30;99.90;;;;;;4933349;28;20079;-74
2021/12/30 09:36:42;;;;;;;8.68;5.85;;;12.30;99.90;;;;;;4944857;28;20078;-72
2021/12/30 09:39:12;;;;;;;9.32;6.63;;;12.30;99.90;;;;;;4951346;28;20059;-73
2021/12/30 09:41:41;;;;;;;11.15;6.85;;;12.30;99.90;;;;;;4973579;28;20082;-72
2021/12/30 09:44:08;;;;;;;11.80;7.13;;;12.30;99.90;;;;;;4941818;28;20127;-73
2021/12/30 09:46:36;;;;;;;8.70;5.68;;;12.40;99.90;;;;;;4952532;28;20102;-74
2021/12/30 09:49:06;;;;;;;8.73;5.95;;;12.40;99.90;;;;;;4949681;28;20562;-73
2021/12/30 09:51:34;;;;;;;9.75;6.85;;;12.40;99.90;;;;;;4956243;28;20097;-71
2021/12/30 09:54:02;;;;;;;9.93;6.68;;;12.40;99.90;;;;;;4924495;29;20047;-76
2021/12/30 09:56:30;;;;;;;10.45;6.43;;;12.50;99.90;;;;;;4934625;28;20051;-72
2021/12/30 09:58:57;;;;;;;10.30;5.90;;;12.50;99.90;;;;;;4943603;29;20054;-74
2021/12/30 10:01:23;;;;;;;8.40;5.50;;;12.50;99.90;;;;;;4957391;28;20140;-72
2021/12/30 10:04:00;;;;;;;8.00;5.50;;;12.50;99.90;;;;;;4943371;28;20047;-74
2021/12/30 10:06:26;;;;;;;9.88;5.88;;;12.50;99.90;;;;;;4949308;28;20047;-74
2021/12/30 10:08:59;;;;;;;11.23;6.07;;;12.60;99.90;;;;;;4967980;28;20142;-74
2021/12/30 10:11:26;;;;;;;8.68;5.22;;;12.60;99.90;;;;;;4959665;28;20166;-73
2021/12/30 10:13:59;;;;;;;9.07;6.03;;;12.60;99.90;;;;;;4953610;28;20050;-74
2021/12/30 10:16:26;;;;;;;8.65;5.22;;;12.60;99.90;;;;;;4976624;28;20058;-74
2021/12/30 10:18:57;;;;;;;8.40;5.13;;;12.60;99.90;;;;;;4942777;29;20463;-74
2021/12/30 10:21:26;;;;;;;7.18;4.63;;;12.60;99.90;;;;;;4954384;28;20102;-74
2021/12/30 10:23:56;;;;;;;7.45;4.43;;;12.70;99.90;;;;;;4957036;28;20071;-74
2021/12/30 10:26:23;;;;;;;5.15;3.70;;;12.70;99.90;;;;;;4941709;28;20067;-74
2021/12/30 10:28:54;;;;;;;6.03;4.05;;;12.70;99.90;;;;;;4943353;29;20106;-74
2021/12/30 10:31:28;;;;;;;7.18;3.65;;;12.70;99.90;;;;;;4942544;28;20130;-73
2021/12/30 10:33:59;;;;;;;5.90;3.88;;;12.70;99.90;;;;;;4941212;28;20415;-74
2021/12/30 10:36:36;;;;;;;7.28;3.70;;;12.70;99.90;;;;;;4941710;28;20488;-74
2021/12/30 10:39:25;;;;;;;6.10;3.50;;;12.70;99.90;;;;;;4942884;29;20055;-75
2021/12/30 10:42:19;;;;;;;4.43;3.00;;;12.70;99.90;;;;;;4940659;28;20098;-74
2021/12/30 10:44:58;;;;;;;4.25;3.40;;;12.70;99.90;;;;;;4956494;28;20395;-74
2021/12/30 10:47:31;;;;;;;4.45;2.95;;;12.80;99.90;;;;;;4955337;28;20420;-74
2021/12/30 10:50:11;;;;;;;5.40;3.03;;;12.80;99.90;;;;;;4956056;28;20050;-74
2021/12/30 10:52:55;;;;;;;3.05;2.45;;;12.80;99.90;;;;;;4941939;28;20496;-74
2021/12/30 10:55:23;;;;;;;2.90;2.05;;;12.80;99.90;;;;;;4960363;28;20055;-75
2021/12/30 10:57:51;;;;;;;3.38;1.80;;;12.90;99.90;;;;;;4943105;29;20063;-74
2021/12/30 11:00:28;;;;;;;4.00;2.00;;;12.90;99.90;;;;;;4973175;28;20091;-75
2021/12/30 11:02:55;;;;;;;4.35;2.45;;;12.90;99.90;;;;;;4943717;28;20335;-73
2021/12/30 11:05:22;;;;;;;3.92;1.92;;;12.90;99.90;;;;;;4942633;28;20054;-74
2021/12/30 11:07:53;;;;;;;3.63;2.00;;;12.90;99.90;;;;;;4957592;28;20118;-73
2021/12/30 11:10:38;;;;;;;2.30;1.60;;;12.90;99.90;;;;;;4965629;28;20074;-74
2021/12/30 11:13:11;;;;;;;5.40;2.25;;;12.90;99.90;;;;;;4957078;28;20596;-73
2021/12/30 11:15:40;;;;;;;2.63;1.70;;;12.90;99.90;;;;;;4944109;28;20050;-74
2021/12/30 11:18:12;;;;;;;3.30;2.08;;;12.90;99.90;;;;;;4945415;28;20166;-73
2021/12/30 11:20:46;;;;;;;3.53;2.20;;;12.90;99.90;;;;;;4952197;28;20111;-74
2021/12/30 11:23:15;;;;;;;3.03;2.17;;;12.90;99.90;;;;;;4944011;28;20435;-74
2021/12/30 11:25:43;;;;;;;4.90;2.42;;;13.00;99.90;;;;;;4944063;28;20281;-74
2021/12/30 11:28:10;;;;;;;3.47;2.63;;;13.00;99.90;;;;;;4944790;28;20051;-74
2021/12/30 11:30:37;;;;;;;4.88;2.88;;;12.90;99.90;;;;;;4957051;28;20348;-74
2021/12/30 11:33:04;;;;;;;5.15;3.50;;;12.90;99.90;;;;;;4946177;28;20547;-73
2021/12/30 11:35:31;;;;;;;4.72;3.45;;;12.90;99.90;;;;;;4952386;28;20040;-74
2021/12/30 11:37:59;;;;;;;6.88;3.88;;;12.90;99.90;;;;;;4986398;28;20047;-74
2021/12/30 11:40:27;;;;;;;5.80;4.22;;;12.90;99.90;;;;;;4951642;28;20446;-74
2021/12/30 11:42:58;;;;;;;6.93;4.43;;;12.90;99.90;;;;;;4957374;28;20396;-74
2021/12/30 11:45:29;;;;;;;5.68;4.38;;;12.80;99.90;;;;;;4951962;28;20097;-75
2021/12/30 11:48:04;;;;;;;5.55;4.80;;;12.80;99.90;;;;;;4959472;28;20057;-75
2021/12/30 11:50:39;;;;;;;7.07;5.00;;;12.80;99.90;;;;;;4947701;28;20050;-75
2021/12/30 11:53:24;;;;;;;6.82;4.75;;;12.70;99.90;;;;;;4957001;28;20570;-75
2021/12/30 11:55:53;;;;;;;7.63;5.82;;;12.80;99.90;;;;;;4947050;28;20051;-75
2021/12/30 11:58:29;;;;;;;9.73;5.07;;;12.70;99.90;;;;;;4960195;28;20142;-75
2021/12/30 12:01:04;;;;;;;9.48;5.55;;;12.70;99.90;;;;;;4962126;28;20507;-75
2021/12/30 12:03:53;;;;;;;8.20;5.55;;;12.70;99.90;;;;;;4989149;23;20051;-73
2021/12/30 12:06:45;;;;;;;12.52;8.30;;;12.70;99.90;;;;;;4941431;28;20499;-73
2021/12/30 12:09:19;;;;;;;10.75;5.97;;;12.60;99.90;;;;;;4957901;28;20090;-73
2021/12/30 12:11:56;;;;;;;5.93;3.65;;;12.60;99.90;;;;;;4946124;28;20566;-73
2021/12/30 12:14:28;;;;;;;6.10;4.38;;;12.60;99.90;;;;;;4946183;28;20055;-73
2021/12/30 12:16:59;;;;;;;5.72;3.92;;;12.60;99.90;;;;;;4943245;28;20114;-74
2021/12/30 12:19:34;;;;;;;7.28;5.30;;;12.60;99.90;;;;;;4943268;28;20356;-73
2021/12/30 12:22:03;;;;;;;7.93;5.22;;;12.60;99.90;;;;;;4936984;28;20063;-74
2021/12/30 12:24:41;;;;;;;7.38;5.72;;;12.60;99.90;;;;;;4916851;29;20052;-74
2021/12/30 12:27:18;;;;;;;9.20;6.53;;;12.60;99.90;;;;;;4924153;28;20135;-74
2021/12/30 12:29:48;;;;;;;8.25;5.32;;;12.60;99.90;;;;;;4926179;29;20040;-72
2021/12/30 12:32:18;;;;;;;6.72;5.75;;;12.60;99.90;;;;;;4973385;28;20059;-74
2021/12/30 12:34:50;;;;;;;7.40;5.25;;;12.60;99.90;;;;;;4944843;28;20110;-73
2021/12/30 12:37:45;;;;;;;11.98;7.57;;;12.60;99.90;;;;;;4943669;28;20567;-73
2021/12/30 12:40:20;;;;;;;12.85;7.40;;;12.60;99.90;;;;;;4942566;28;20610;-72
2021/12/30 12:42:52;;;;;;;9.00;6.35;;;12.60;99.90;;;;;;4943514;28;20111;-73
2021/12/30 12:45:27;;;;;;;8.18;5.80;;;12.50;99.90;;;;;;4943714;28;20051;-73
2021/12/30 12:48:16;;;;;;;9.10;5.85;;;12.50;99.90;;;;;;4941806;29;20467;-73